sensor_id;sensor_type;location;lat;lon;timestamp;P1;durP1;ratioP1;P2;durP2;ratioP2
76398;SDS011;65227;48.178;11.508;2022-11-15T00:00:29;11.20;;;4.20;;
76398;SDS011;65227;48.178;11.508;2022-11-15T00:02:54;6.87;;;3.50;;
76398;SDS011;65227;48.178;11.508;2022-11-15T00:05:20;7.82;;;4.05;;
76398;SDS011;65227;48.178;11.508;2022-11-15T00:07:45;8.43;;;3.83;;
76398;SDS011;65227;48.178;11.508;2022-11-15T00:10:11;6.00;;;3.40;;
76398;SDS011;65227;48.178;11.508;2022-11-15T00:12:36;8.05;;;3.83;;
76398;SDS011;65227;48.178;11.508;2022-11-15T00:15:01;5.20;;;3.43;;
76398;SDS011;65227;48.178;11.508;2022-11-15T00:17:26;10.93;;;3.80;;
76398;SDS011;65227;48.178;11.508;2022-11-15T00:19:52;10.67;;;3.60;;
76398;SDS011;65227;48.178;11.508;2022-11-15T00:22:17;6.40;;;3.37;;
76398;SDS011;65227;48.178;11.508;2022-11-15T00:24:42;6.67;;;3.73;;
76398;SDS011;65227;48.178;11.508;2022-11-15T00:27:07;8.03;;;3.47;;
76398;SDS011;65227;48.178;11.508;2022-11-15T00:29:32;5.57;;;3.53;;
76398;SDS011;65227;48.178;11.508;2022-11-15T00:31:58;6.83;;;3.60;;
76398;SDS011;65227;48.178;11.508;2022-11-15T00:34:23;6.67;;;3.10;;
76398;SDS011;65227;48.178;11.508;2022-11-15T00:36:48;7.53;;;3.67;;
76398;SDS011;65227;48.178;11.508;2022-11-15T00:39:13;5.15;;;2.72;;
76398;SDS011;65227;48.178;11.508;2022-11-15T00:41:38;10.13;;;3.67;;
76398;SDS011;65227;48.178;11.508;2022-11-15T00:44:03;6.10;;;3.17;;
76398;SDS011;65227;48.178;11.508;2022-11-15T00:46:29;5.53;;;3.27;;
76398;SDS011;65227;48.178;11.508;2022-11-15T00:48:54;6.93;;;3.37;;
76398;SDS011;65227;48.178;11.508;2022-11-15T00:51:19;5.75;;;3.30;;
76398;SDS011;65227;48.178;11.508;2022-11-15T00:53:44;5.83;;;2.93;;
76398;SDS011;65227;48.178;11.508;2022-11-15T00:56:09;6.32;;;3.60;;
76398;SDS011;65227;48.178;11.508;2022-11-15T00:58:34;5.88;;;3.42;;
76398;SDS011;65227;48.178;11.508;2022-11-15T01:01:06;4.00;;;2.90;;
76398;SDS011;65227;48.178;11.508;2022-11-15T01:03:32;7.43;;;3.30;;
76398;SDS011;65227;48.178;11.508;2022-11-15T01:06:01;5.50;;;3.50;;
76398;SDS011;65227;48.178;11.508;2022-11-15T01:08:26;6.57;;;3.13;;
76398;SDS011;65227;48.178;11.508;2022-11-15T01:10:51;4.77;;;3.10;;
76398;SDS011;65227;48.178;11.508;2022-11-15T01:13:16;6.13;;;2.75;;
76398;SDS011;65227;48.178;11.508;2022-11-15T01:15:42;5.53;;;3.23;;
76398;SDS011;65227;48.178;11.508;2022-11-15T01:18:07;5.15;;;3.40;;
76398;SDS011;65227;48.178;11.508;2022-11-15T01:20:32;5.63;;;3.15;;
76398;SDS011;65227;48.178;11.508;2022-11-15T01:22:57;8.47;;;3.20;;
76398;SDS011;65227;48.178;11.508;2022-11-15T01:25:23;5.27;;;3.30;;
76398;SDS011;65227;48.178;11.508;2022-11-15T01:27:48;5.37;;;2.87;;
76398;SDS011;65227;48.178;11.508;2022-11-15T01:30:13;5.33;;;2.70;;
76398;SDS011;65227;48.178;11.508;2022-11-15T01:32:38;9.30;;;3.43;;
76398;SDS011;65227;48.178;11.508;2022-11-15T01:35:03;7.70;;;3.00;;
76398;SDS011;65227;48.178;11.508;2022-11-15T01:37:29;4.32;;;3.00;;
76398;SDS011;65227;48.178;11.508;2022-11-15T01:39:54;5.83;;;3.00;;
76398;SDS011;65227;48.178;11.508;2022-11-15T01:42:19;5.05;;;2.92;;
76398;SDS011;65227;48.178;11.508;2022-11-15T01:44:48;3.33;;;2.50;;
76398;SDS011;65227;48.178;11.508;2022-11-15T01:47:15;4.50;;;2.58;;
76398;SDS011;65227;48.178;11.508;2022-11-15T01:49:45;6.05;;;2.78;;
76398;SDS011;65227;48.178;11.508;2022-11-15T01:52:15;5.63;;;2.42;;
76398;SDS011;65227;48.178;11.508;2022-11-15T01:54:42;4.70;;;2.65;;
76398;SDS011;65227;48.178;11.508;2022-11-15T01:57:08;5.68;;;3.10;;
76398;SDS011;65227;48.178;11.508;2022-11-15T01:59:34;3.78;;;2.60;;
76398;SDS011;65227;48.178;11.508;2022-11-15T02:02:00;6.28;;;2.50;;
76398;SDS011;65227;48.178;11.508;2022-11-15T02:04:26;5.47;;;2.80;;
76398;SDS011;65227;48.178;11.508;2022-11-15T02:06:52;6.15;;;2.80;;
76398;SDS011;65227;48.178;11.508;2022-11-15T02:09:17;5.47;;;2.67;;
76398;SDS011;65227;48.178;11.508;2022-11-15T02:11:42;3.97;;;2.28;;
76398;SDS011;65227;48.178;11.508;2022-11-15T02:14:08;3.95;;;2.33;;
76398;SDS011;65227;48.178;11.508;2022-11-15T02:19:13;4.68;;;2.65;;
76398;SDS011;65227;48.178;11.508;2022-11-15T02:25:03;4.05;;;2.17;;
76398;SDS011;65227;48.178;11.508;2022-11-15T02:27:08;6.95;;;2.60;;
76398;SDS011;65227;48.178;11.508;2022-11-15T02:32:11;6.20;;;2.15;;
76398;SDS011;65227;48.178;11.508;2022-11-15T02:34:50;4.05;;;2.75;;
76398;SDS011;65227;48.178;11.508;2022-11-15T02:39:51;3.40;;;2.10;;
76398;SDS011;65227;48.178;11.508;2022-11-15T02:42:41;5.03;;;2.25;;
76398;SDS011;65227;48.178;11.508;2022-11-15T02:45:30;5.57;;;2.38;;
76398;SDS011;65227;48.178;11.508;2022-11-15T02:47:56;3.85;;;2.38;;
76398;SDS011;65227;48.178;11.508;2022-11-15T02:50:24;4.95;;;2.30;;
76398;SDS011;65227;48.178;11.508;2022-11-15T02:52:50;4.88;;;2.50;;
76398;SDS011;65227;48.178;11.508;2022-11-15T02:55:32;4.03;;;2.42;;
76398;SDS011;65227;48.178;11.508;2022-11-15T02:58:01;3.78;;;2.15;;
76398;SDS011;65227;48.178;11.508;2022-11-15T03:00:31;3.63;;;2.28;;
76398;SDS011;65227;48.178;11.508;2022-11-15T03:03:12;4.97;;;2.47;;
76398;SDS011;65227;48.178;11.508;2022-11-15T03:08:24;3.55;;;2.20;;
76398;SDS011;65227;48.178;11.508;2022-11-15T03:11:02;5.80;;;2.60;;
76398;SDS011;65227;48.178;11.508;2022-11-15T03:16:11;5.20;;;2.03;;
76398;SDS011;65227;48.178;11.508;2022-11-15T03:18:40;5.43;;;2.47;;
76398;SDS011;65227;48.178;11.508;2022-11-15T03:21:07;5.57;;;2.05;;
76398;SDS011;65227;48.178;11.508;2022-11-15T03:23:32;4.68;;;2.28;;
76398;SDS011;65227;48.178;11.508;2022-11-15T03:25:58;7.90;;;2.47;;
76398;SDS011;65227;48.178;11.508;2022-11-15T03:28:27;3.28;;;2.30;;
76398;SDS011;65227;48.178;11.508;2022-11-15T03:30:54;3.67;;;2.10;;
76398;SDS011;65227;48.178;11.508;2022-11-15T03:33:20;4.35;;;2.15;;
76398;SDS011;65227;48.178;11.508;2022-11-15T03:35:46;3.13;;;2.13;;
76398;SDS011;65227;48.178;11.508;2022-11-15T03:38:17;4.72;;;1.95;;
76398;SDS011;65227;48.178;11.508;2022-11-15T03:40:54;4.15;;;1.90;;
76398;SDS011;65227;48.178;11.508;2022-11-15T03:46:08;5.00;;;2.15;;
76398;SDS011;65227;48.178;11.508;2022-11-15T03:49:04;4.45;;;2.30;;
76398;SDS011;65227;48.178;11.508;2022-11-15T03:51:24;4.40;;;2.22;;
76398;SDS011;65227;48.178;11.508;2022-11-15T03:53:49;3.63;;;2.00;;
76398;SDS011;65227;48.178;11.508;2022-11-15T03:56:15;3.83;;;2.45;;
76398;SDS011;65227;48.178;11.508;2022-11-15T03:58:40;4.00;;;2.30;;
76398;SDS011;65227;48.178;11.508;2022-11-15T04:01:05;2.63;;;1.93;;
76398;SDS011;65227;48.178;11.508;2022-11-15T04:03:30;3.13;;;2.13;;
76398;SDS011;65227;48.178;11.508;2022-11-15T04:05:55;3.50;;;2.03;;
76398;SDS011;65227;48.178;11.508;2022-11-15T04:08:21;3.27;;;1.90;;
76398;SDS011;65227;48.178;11.508;2022-11-15T04:10:48;3.42;;;1.92;;
76398;SDS011;65227;48.178;11.508;2022-11-15T04:13:13;3.53;;;1.92;;
76398;SDS011;65227;48.178;11.508;2022-11-15T04:15:38;6.07;;;2.57;;
76398;SDS011;65227;48.178;11.508;2022-11-15T04:18:03;2.73;;;1.90;;
76398;SDS011;65227;48.178;11.508;2022-11-15T04:20:29;4.40;;;2.30;;
76398;SDS011;65227;48.178;11.508;2022-11-15T04:23:17;4.13;;;2.00;;
76398;SDS011;65227;48.178;11.508;2022-11-15T04:26:05;4.13;;;1.80;;
76398;SDS011;65227;48.178;11.508;2022-11-15T04:28:30;4.22;;;1.85;;
76398;SDS011;65227;48.178;11.508;2022-11-15T04:30:56;4.53;;;2.20;;
76398;SDS011;65227;48.178;11.508;2022-11-15T04:33:21;2.65;;;1.88;;
76398;SDS011;65227;48.178;11.508;2022-11-15T04:35:46;3.58;;;2.03;;
76398;SDS011;65227;48.178;11.508;2022-11-15T04:38:31;3.33;;;2.10;;
76398;SDS011;65227;48.178;11.508;2022-11-15T04:40:57;3.20;;;2.00;;
76398;SDS011;65227;48.178;11.508;2022-11-15T04:43:22;2.67;;;1.87;;
76398;SDS011;65227;48.178;11.508;2022-11-15T04:45:47;4.30;;;2.20;;
76398;SDS011;65227;48.178;11.508;2022-11-15T04:48:12;3.17;;;1.80;;
76398;SDS011;65227;48.178;11.508;2022-11-15T04:50:37;4.03;;;1.90;;
76398;SDS011;65227;48.178;11.508;2022-11-15T04:53:03;4.55;;;2.20;;
76398;SDS011;65227;48.178;11.508;2022-11-15T04:55:28;3.13;;;1.80;;
76398;SDS011;65227;48.178;11.508;2022-11-15T04:57:59;2.57;;;1.87;;
76398;SDS011;65227;48.178;11.508;2022-11-15T05:00:25;2.78;;;1.73;;
76398;SDS011;65227;48.178;11.508;2022-11-15T05:02:50;3.13;;;1.88;;
76398;SDS011;65227;48.178;11.508;2022-11-15T05:05:34;3.42;;;2.10;;
76398;SDS011;65227;48.178;11.508;2022-11-15T05:07:59;4.90;;;1.70;;
76398;SDS011;65227;48.178;11.508;2022-11-15T05:10:24;3.30;;;1.83;;
76398;SDS011;65227;48.178;11.508;2022-11-15T05:12:49;4.60;;;2.58;;
76398;SDS011;65227;48.178;11.508;2022-11-15T05:15:15;3.67;;;2.20;;
76398;SDS011;65227;48.178;11.508;2022-11-15T05:17:40;3.53;;;2.10;;
76398;SDS011;65227;48.178;11.508;2022-11-15T05:20:05;2.55;;;1.83;;
76398;SDS011;65227;48.178;11.508;2022-11-15T05:22:31;4.22;;;1.90;;
76398;SDS011;65227;48.178;11.508;2022-11-15T05:24:56;3.03;;;1.97;;
76398;SDS011;65227;48.178;11.508;2022-11-15T05:27:21;4.53;;;1.83;;
76398;SDS011;65227;48.178;11.508;2022-11-15T05:29:46;3.03;;;1.80;;
76398;SDS011;65227;48.178;11.508;2022-11-15T05:32:11;3.40;;;1.73;;
76398;SDS011;65227;48.178;11.508;2022-11-15T05:34:37;3.83;;;1.80;;
76398;SDS011;65227;48.178;11.508;2022-11-15T05:37:02;3.43;;;2.10;;
76398;SDS011;65227;48.178;11.508;2022-11-15T05:39:28;2.60;;;1.65;;
76398;SDS011;65227;48.178;11.508;2022-11-15T05:41:54;3.23;;;1.77;;
76398;SDS011;65227;48.178;11.508;2022-11-15T05:44:22;3.22;;;1.73;;
76398;SDS011;65227;48.178;11.508;2022-11-15T05:46:48;3.30;;;2.00;;
76398;SDS011;65227;48.178;11.508;2022-11-15T05:49:14;3.65;;;2.15;;
76398;SDS011;65227;48.178;11.508;2022-11-15T05:51:41;3.85;;;1.90;;
76398;SDS011;65227;48.178;11.508;2022-11-15T05:54:06;4.72;;;1.90;;
76398;SDS011;65227;48.178;11.508;2022-11-15T05:56:32;5.93;;;2.40;;
76398;SDS011;65227;48.178;11.508;2022-11-15T05:58:57;3.10;;;1.90;;
76398;SDS011;65227;48.178;11.508;2022-11-15T06:01:23;3.80;;;1.90;;
76398;SDS011;65227;48.178;11.508;2022-11-15T06:03:50;3.92;;;2.03;;
76398;SDS011;65227;48.178;11.508;2022-11-15T06:06:15;3.77;;;2.03;;
76398;SDS011;65227;48.178;11.508;2022-11-15T06:08:40;4.23;;;1.97;;
76398;SDS011;65227;48.178;11.508;2022-11-15T06:11:05;2.97;;;1.87;;
76398;SDS011;65227;48.178;11.508;2022-11-15T06:13:31;3.15;;;1.88;;
76398;SDS011;65227;48.178;11.508;2022-11-15T06:15:57;4.88;;;2.33;;
76398;SDS011;65227;48.178;11.508;2022-11-15T06:18:22;5.70;;;2.27;;
76398;SDS011;65227;48.178;11.508;2022-11-15T06:20:47;6.22;;;1.77;;
76398;SDS011;65227;48.178;11.508;2022-11-15T06:23:12;6.70;;;2.17;;
76398;SDS011;65227;48.178;11.508;2022-11-15T06:25:38;3.85;;;1.75;;
76398;SDS011;65227;48.178;11.508;2022-11-15T06:28:03;9.20;;;2.03;;
76398;SDS011;65227;48.178;11.508;2022-11-15T06:30:28;8.10;;;2.53;;
76398;SDS011;65227;48.178;11.508;2022-11-15T06:33:00;7.17;;;2.60;;
76398;SDS011;65227;48.178;11.508;2022-11-15T06:35:26;8.52;;;2.30;;
76398;SDS011;65227;48.178;11.508;2022-11-15T06:37:51;5.70;;;2.10;;
76398;SDS011;65227;48.178;11.508;2022-11-15T06:40:17;5.87;;;2.13;;
76398;SDS011;65227;48.178;11.508;2022-11-15T06:42:42;5.90;;;2.05;;
76398;SDS011;65227;48.178;11.508;2022-11-15T07:07:18;20.92;;;2.95;;
76398;SDS011;65227;48.178;11.508;2022-11-15T07:09:43;7.00;;;2.23;;
76398;SDS011;65227;48.178;11.508;2022-11-15T07:13:41;10.45;;;2.80;;
76398;SDS011;65227;48.178;11.508;2022-11-15T07:16:07;11.60;;;3.77;;
76398;SDS011;65227;48.178;11.508;2022-11-15T07:18:34;10.75;;;4.63;;
76398;SDS011;65227;48.178;11.508;2022-11-15T07:21:07;8.10;;;4.63;;
76398;SDS011;65227;48.178;11.508;2022-11-15T07:23:32;64.40;;;10.35;;
76398;SDS011;65227;48.178;11.508;2022-11-15T07:25:58;39.78;;;9.07;;
76398;SDS011;65227;48.178;11.508;2022-11-15T07:28:24;24.17;;;5.53;;
76398;SDS011;65227;48.178;11.508;2022-11-15T07:30:49;20.38;;;5.35;;
76398;SDS011;65227;48.178;11.508;2022-11-15T07:33:14;16.93;;;5.10;;
76398;SDS011;65227;48.178;11.508;2022-11-15T07:35:39;17.65;;;5.13;;
76398;SDS011;65227;48.178;11.508;2022-11-15T07:38:04;17.17;;;4.73;;
76398;SDS011;65227;48.178;11.508;2022-11-15T07:40:30;17.40;;;5.50;;
76398;SDS011;65227;48.178;11.508;2022-11-15T07:43:03;11.55;;;4.65;;
76398;SDS011;65227;48.178;11.508;2022-11-15T07:45:29;12.30;;;3.78;;
76398;SDS011;65227;48.178;11.508;2022-11-15T07:47:54;19.20;;;4.37;;
76398;SDS011;65227;48.178;11.508;2022-11-15T07:50:20;11.98;;;4.20;;
76398;SDS011;65227;48.178;11.508;2022-11-15T07:52:46;10.55;;;4.18;;
76398;SDS011;65227;48.178;11.508;2022-11-15T07:55:11;10.53;;;4.10;;
76398;SDS011;65227;48.178;11.508;2022-11-15T07:57:37;15.47;;;4.23;;
76398;SDS011;65227;48.178;11.508;2022-11-15T08:00:05;10.50;;;3.88;;
76398;SDS011;65227;48.178;11.508;2022-11-15T08:02:31;12.48;;;5.38;;
76398;SDS011;65227;48.178;11.508;2022-11-15T08:04:56;7.90;;;3.78;;
76398;SDS011;65227;48.178;11.508;2022-11-15T08:07:21;10.43;;;4.32;;
76398;SDS011;65227;48.178;11.508;2022-11-15T08:09:47;10.33;;;3.77;;
76398;SDS011;65227;48.178;11.508;2022-11-15T08:12:12;10.13;;;4.23;;
76398;SDS011;65227;48.178;11.508;2022-11-15T08:14:37;10.70;;;3.93;;
76398;SDS011;65227;48.178;11.508;2022-11-15T08:17:03;11.52;;;4.53;;
76398;SDS011;65227;48.178;11.508;2022-11-15T08:19:28;10.40;;;4.40;;
76398;SDS011;65227;48.178;11.508;2022-11-15T08:21:53;15.33;;;4.03;;
76398;SDS011;65227;48.178;11.508;2022-11-15T08:24:19;8.67;;;3.97;;
76398;SDS011;65227;48.178;11.508;2022-11-15T08:26:45;9.63;;;3.47;;
76398;SDS011;65227;48.178;11.508;2022-11-15T08:29:10;9.90;;;4.50;;
76398;SDS011;65227;48.178;11.508;2022-11-15T08:31:36;13.57;;;4.23;;
76398;SDS011;65227;48.178;11.508;2022-11-15T08:34:02;9.10;;;3.38;;
76398;SDS011;65227;48.178;11.508;2022-11-15T08:36:27;11.80;;;3.47;;
76398;SDS011;65227;48.178;11.508;2022-11-15T08:38:52;9.87;;;3.27;;
76398;SDS011;65227;48.178;11.508;2022-11-15T08:41:31;10.43;;;4.00;;
76398;SDS011;65227;48.178;11.508;2022-11-15T08:43:57;7.32;;;4.07;;
76398;SDS011;65227;48.178;11.508;2022-11-15T08:46:22;7.63;;;3.17;;
76398;SDS011;65227;48.178;11.508;2022-11-15T08:48:47;8.90;;;2.75;;
76398;SDS011;65227;48.178;11.508;2022-11-15T08:51:13;8.30;;;3.63;;
76398;SDS011;65227;48.178;11.508;2022-11-15T08:53:38;7.75;;;2.78;;
76398;SDS011;65227;48.178;11.508;2022-11-15T08:56:06;12.77;;;3.57;;
76398;SDS011;65227;48.178;11.508;2022-11-15T08:58:32;6.15;;;2.97;;
76398;SDS011;65227;48.178;11.508;2022-11-15T09:00:57;8.93;;;3.10;;
76398;SDS011;65227;48.178;11.508;2022-11-15T09:03:23;7.88;;;3.92;;
76398;SDS011;65227;48.178;11.508;2022-11-15T09:05:48;4.33;;;2.80;;
76398;SDS011;65227;48.178;11.508;2022-11-15T09:08:13;7.40;;;2.58;;
76398;SDS011;65227;48.178;11.508;2022-11-15T09:10:38;13.38;;;3.78;;
76398;SDS011;65227;48.178;11.508;2022-11-15T09:13:04;8.80;;;3.00;;
76398;SDS011;65227;48.178;11.508;2022-11-15T09:15:29;6.30;;;2.83;;
76398;SDS011;65227;48.178;11.508;2022-11-15T09:17:57;8.17;;;3.57;;
76398;SDS011;65227;48.178;11.508;2022-11-15T09:20:22;5.10;;;2.92;;
76398;SDS011;65227;48.178;11.508;2022-11-15T09:22:47;6.33;;;2.97;;
76398;SDS011;65227;48.178;11.508;2022-11-15T09:25:13;7.27;;;3.77;;
76398;SDS011;65227;48.178;11.508;2022-11-15T09:27:38;7.97;;;2.90;;
76398;SDS011;65227;48.178;11.508;2022-11-15T09:30:03;8.80;;;3.50;;
76398;SDS011;65227;48.178;11.508;2022-11-15T09:32:28;7.93;;;3.65;;
76398;SDS011;65227;48.178;11.508;2022-11-15T09:34:55;6.55;;;3.45;;
76398;SDS011;65227;48.178;11.508;2022-11-15T09:37:20;7.57;;;3.07;;
76398;SDS011;65227;48.178;11.508;2022-11-15T09:39:45;5.40;;;3.30;;
76398;SDS011;65227;48.178;11.508;2022-11-15T09:42:25;6.00;;;3.20;;
76398;SDS011;65227;48.178;11.508;2022-11-15T09:50:11;10.73;;;4.55;;
76398;SDS011;65227;48.178;11.508;2022-11-15T09:52:37;5.95;;;3.15;;
76398;SDS011;65227;48.178;11.508;2022-11-15T09:55:05;7.93;;;3.80;;
76398;SDS011;65227;48.178;11.508;2022-11-15T09:57:41;6.72;;;4.03;;
76398;SDS011;65227;48.178;11.508;2022-11-15T10:02:41;8.98;;;3.50;;
76398;SDS011;65227;48.178;11.508;2022-11-15T10:05:09;7.28;;;3.55;;
76398;SDS011;65227;48.178;11.508;2022-11-15T10:10:32;10.50;;;2.78;;
76398;SDS011;65227;48.178;11.508;2022-11-15T10:13:00;5.95;;;3.50;;
76398;SDS011;65227;48.178;11.508;2022-11-15T10:15:26;6.70;;;2.95;;
76398;SDS011;65227;48.178;11.508;2022-11-15T10:17:55;8.60;;;3.03;;
76398;SDS011;65227;48.178;11.508;2022-11-15T10:20:29;7.78;;;2.95;;
76398;SDS011;65227;48.178;11.508;2022-11-15T10:22:56;8.63;;;3.08;;
76398;SDS011;65227;48.178;11.508;2022-11-15T10:27:50;4.75;;;2.80;;
76398;SDS011;65227;48.178;11.508;2022-11-15T10:30:17;5.38;;;2.45;;
76398;SDS011;65227;48.178;11.508;2022-11-15T10:32:43;6.78;;;2.78;;
76398;SDS011;65227;48.178;11.508;2022-11-15T10:35:42;4.88;;;2.35;;
76398;SDS011;65227;48.178;11.508;2022-11-15T10:38:07;6.00;;;2.63;;
76398;SDS011;65227;48.178;11.508;2022-11-15T10:40:33;4.57;;;2.22;;
76398;SDS011;65227;48.178;11.508;2022-11-15T10:43:12;5.32;;;2.75;;
76398;SDS011;65227;48.178;11.508;2022-11-15T10:45:38;7.47;;;3.28;;
76398;SDS011;65227;48.178;11.508;2022-11-15T10:50:42;5.25;;;2.75;;
76398;SDS011;65227;48.178;11.508;2022-11-15T10:53:15;5.65;;;2.90;;
76398;SDS011;65227;48.178;11.508;2022-11-15T10:55:41;5.90;;;2.95;;
76398;SDS011;65227;48.178;11.508;2022-11-15T11:00:47;4.25;;;2.47;;
76398;SDS011;65227;48.178;11.508;2022-11-15T11:03:31;8.40;;;3.37;;
76398;SDS011;65227;48.178;11.508;2022-11-15T11:06:05;6.05;;;2.80;;
76398;SDS011;65227;48.178;11.508;2022-11-15T11:08:30;5.47;;;2.80;;
76398;SDS011;65227;48.178;11.508;2022-11-15T11:10:57;7.95;;;2.47;;
76398;SDS011;65227;48.178;11.508;2022-11-15T11:13:27;5.15;;;2.67;;
76398;SDS011;65227;48.178;11.508;2022-11-15T11:16:09;3.75;;;2.53;;
76398;SDS011;65227;48.178;11.508;2022-11-15T11:21:15;4.07;;;2.42;;
76398;SDS011;65227;48.178;11.508;2022-11-15T11:23:53;4.07;;;2.63;;
76398;SDS011;65227;48.178;11.508;2022-11-15T11:36:44;8.40;;;1.95;;
76398;SDS011;65227;48.178;11.508;2022-11-15T11:46:59;7.30;;;2.53;;
76398;SDS011;65227;48.178;11.508;2022-11-15T11:52:05;4.93;;;2.47;;
76398;SDS011;65227;48.178;11.508;2022-11-15T11:54:44;9.43;;;2.78;;
76398;SDS011;65227;48.178;11.508;2022-11-15T11:57:22;5.60;;;1.88;;
76398;SDS011;65227;48.178;11.508;2022-11-15T11:59:51;4.50;;;1.90;;
76398;SDS011;65227;48.178;11.508;2022-11-15T12:04:44;5.65;;;2.00;;
76398;SDS011;65227;48.178;11.508;2022-11-15T12:07:17;8.30;;;2.45;;
76398;SDS011;65227;48.178;11.508;2022-11-15T12:15:11;4.13;;;2.42;;
76398;SDS011;65227;48.178;11.508;2022-11-15T12:17:38;8.15;;;2.25;;
76398;SDS011;65227;48.178;11.508;2022-11-15T12:20:26;6.55;;;2.83;;
76398;SDS011;65227;48.178;11.508;2022-11-15T12:23:07;10.20;;;2.50;;
76398;SDS011;65227;48.178;11.508;2022-11-15T12:28:11;10.05;;;2.30;;
76398;SDS011;65227;48.178;11.508;2022-11-15T12:30:52;7.85;;;3.03;;
76398;SDS011;65227;48.178;11.508;2022-11-15T12:35:58;4.75;;;2.05;;
76398;SDS011;65227;48.178;11.508;2022-11-15T12:38:49;10.15;;;2.60;;
76398;SDS011;65227;48.178;11.508;2022-11-15T12:41:15;4.18;;;1.92;;
76398;SDS011;65227;48.178;11.508;2022-11-15T12:43:42;3.97;;;2.30;;
76398;SDS011;65227;48.178;11.508;2022-11-15T12:46:58;5.72;;;1.88;;
76398;SDS011;65227;48.178;11.508;2022-11-15T13:02:20;5.40;;;1.92;;
76398;SDS011;65227;48.178;11.508;2022-11-15T13:04:46;6.40;;;3.35;;
76398;SDS011;65227;48.178;11.508;2022-11-15T13:09:55;13.27;;;4.32;;
76398;SDS011;65227;48.178;11.508;2022-11-15T13:12:48;11.23;;;4.30;;
76398;SDS011;65227;48.178;11.508;2022-11-15T13:27:44;4.15;;;2.40;;
76398;SDS011;65227;48.178;11.508;2022-11-15T13:30:22;5.67;;;2.60;;
76398;SDS011;65227;48.178;11.508;2022-11-15T13:32:47;4.95;;;2.60;;
76398;SDS011;65227;48.178;11.508;2022-11-15T13:35:24;4.20;;;2.88;;
76398;SDS011;65227;48.178;11.508;2022-11-15T13:37:50;4.55;;;2.60;;
76398;SDS011;65227;48.178;11.508;2022-11-15T13:40:19;5.65;;;2.20;;
76398;SDS011;65227;48.178;11.508;2022-11-15T13:42:45;2.95;;;1.80;;
76398;SDS011;65227;48.178;11.508;2022-11-15T13:45:13;4.67;;;2.30;;
76398;SDS011;65227;48.178;11.508;2022-11-15T13:47:38;4.35;;;2.05;;
76398;SDS011;65227;48.178;11.508;2022-11-15T13:50:03;4.50;;;2.77;;
76398;SDS011;65227;48.178;11.508;2022-11-15T13:52:31;2.65;;;2.30;;
76398;SDS011;65227;48.178;11.508;2022-11-15T13:55:01;7.18;;;2.95;;
76398;SDS011;65227;48.178;11.508;2022-11-15T13:57:39;4.18;;;2.45;;
